Share

Miles City, MT

Wiley (KMLS) Elev 2628 ft | 46.43 °N, 105.88 °W | Change Station

Current weather conditions updated 18 minutes ago

Mostly Cloudy
Mostly Cloudy
54 °F
Feels Like 54 °F
N
8
Wind Variable Wind from ESE
Sunrise 6:12 AM
Sunset 7:54 PM
Moon Waning Gibbous

Tomorrow is forecast to be Warmer than today.

Pressure 29.85 in
Visibility 10.0 miles
Clouds Mostly Cloudy 9000 ft
Dew Point 30 °F
Humidity 40%
Rainfall 0.00 in
Snow Depth Not available.
UV 0 out of 16
Pollen 8.40 out of 12
Air Quality Not available.
Flu Activity Sporadic
METAR KMLS 180253Z AUTO 12007KT 10SM BKN090 12/M01 A2983 RMK AO2 SLP108 T01221011 55006

More Conditions Fewer Conditions

Pressure 29.85 in
Visibility 10.0 miles
Clouds Mostly Cloudy 9000 ft
Dew Point 30 °F
Humidity 40%
Rainfall 0.00 in
Snow Depth Not available.
UV 0 out of 16
Pollen 8.40 out of 12
Air Quality Not available.
Flu Activity Sporadic
METAR KMLS 180253Z AUTO 12007KT 10SM BKN090 12/M01 A2983 RMK AO2 SLP108 T01221011 55006

More Conditions Fewer Conditions

10-Day Forecast

Almanac

Astronomy

Apr. 17, 2014 Rise Set
Actual Time 6:12 AM MDT 7:54 PM MDT
Civil Twilight 5:41 AM MDT 8:25 PM MDT
Nautical Twilight 5:02 AM MDT 9:04 PM MDT
Astronomical Twilight 4:20 AM MDT 9:47 PM MDT
Moon 10:50 PM MDT (4/17) 7:40 AM MDT (4/17)
Length of Visible Light 14h 44m
Length of Day
13h 41m
Tomorrow will be 3m 7s longer.
Waning Gibbous, 91% of the Moon is Illuminated
Today
Waning Gibbous
Apr 22
Last Quarter
Apr 29
New
May 6
First Quarter
May 14
Full

Today's Extremes

State Highs State Lows

Community

  • SUNRISE THROUGH THE TREES.
    SUNRISE THROUGH THE TREES.
  • Dog Wood Blossoms
    Dog Wood Blossoms
  • Morning Light
    Morning Light
  • New Day
    New Day
  • Lake Michigan Sunrise
    Lake Michigan Sunrise

WunderPhotos

Upload Photos

1,702,236 photos uploaded!

WunderBlogs® & News

Nearby

Snow Depth

Station Depth Elevation
Crystal Lake 58 in 6050 ft
Cole Creek 80 in 7850 ft
Burnt Mountain 30 in 5880 ft
Daisy Peak 50 in 7600 ft
Rocky Boy 9 in 4700 ft

Coastal Water Temperatures

Place Temperature
No Stations Reporting

Earthquake Activity

City Distance Mag. Time & Date
No recent earthquake activity has been reported nearby.
Minimum magnitude displayed is 2.5.

Nearby Weather Stations

Station Location Temp. Dew Point Humidity Wind Precip. Elev Updated Type
HADS YELLOWSTONE RIVER AT HIGHWAY BRI MT, Miles City, MT 58 °F - - North  at  - 0.00 in / hr 2333 ft 8:00 PM MDT MADIS
MesoWest Government Hill , Miles City, MT 52 °F 33 °F 48% ESE  at  9 mph 0.00 in / hr 3129 ft 8:20 PM MDT MADIS
MesoWest Sweeney Creek I-94 MP 112.6 , Hathaway, MT 54 °F 33 °F 45% SE  at  4 mph 0.00 in / hr 2598 ft 7:56 PM MDT MADIS

Show More Stations Show Fewer Stations

What do you think?

We're not finished. Please let us know what you like, what you don't like, and what you are still missing.